Time;durP1;ratioP1;P1;durP2;ratioP2;P2;SDS_P1;SDS_P2;PMS_P1;PMS_P2;Temp;Humidity;BMP_temperature;BMP_pressure;BME280_temperature;BME280_humidity;BME280_pressure;Samples;Min_cycle;Max_cycle;Signal;HPM_P1;HPM_P2
2022/03/04 00:02:20;;;;;;;15.40;7.80;;;;;;;-1.31;83.25;99642.84;103514;1303;24260;-28
2022/03/04 00:04:46;;;;;;;14.80;6.20;;;;;;;-1.25;82.43;99643.05;103539;1303;24297;-25
2022/03/04 00:07:11;;;;;;;16.00;7.60;;;;;;;-1.17;82.04;99643.33;103481;1302;24249;-29
2022/03/04 00:09:37;;;;;;;41.70;12.60;;;;;;;-1.13;82.26;99639.58;103568;1300;24353;-28
2022/03/04 00:12:07;;;;;;;20.40;7.20;;;;;;;-1.43;84.04;99649.03;103561;1300;22496;-25
2022/03/04 00:14:33;;;;;;;29.70;13.40;;;;;;;-1.47;84.60;99653.16;103507;1302;24265;-29
2022/03/04 00:16:58;;;;;;;24.20;9.50;;;;;;;-1.53;86.02;99652.54;103560;1300;25378;-28
2022/03/04 00:19:24;;;;;;;20.80;9.20;;;;;;;-1.50;86.00;99650.97;103591;1300;24363;-26
2022/03/04 00:21:50;;;;;;;24.80;9.50;;;;;;;-1.28;84.82;99646.13;103537;1302;24340;-29
2022/03/04 00:24:17;;;;;;;20.00;5.00;;;;;;;-1.39;85.49;99646.92;103548;1301;22766;-26
2022/03/04 00:26:43;;;;;;;11.70;6.20;;;;;;;-0.90;82.95;99638.84;103590;1300;24248;-29
2022/03/04 00:29:09;;;;;;;30.70;8.30;;;;;;;-1.08;83.13;99636.53;103524;1297;22876;-26
2022/03/04 00:31:35;;;;;;;9.50;5.30;;;;;;;-0.89;82.12;99637.19;103552;1300;24417;-29
2022/03/04 00:34:01;;;;;;;24.30;10.30;;;;;;;-1.27;83.46;99643.60;103553;1302;24199;-25
2022/03/04 00:36:27;;;;;;;26.40;13.00;;;;;;;-1.45;85.44;99643.88;103513;1301;24258;-26
2022/03/04 00:38:53;;;;;;;18.70;8.00;;;;;;;-1.45;86.16;99650.03;103574;1303;24289;-26
2022/03/04 00:41:21;;;;;;;29.10;12.20;;;;;;;-1.42;86.41;99647.36;103551;1300;24218;-25
2022/03/04 00:43:47;;;;;;;30.60;11.30;;;;;;;-1.38;86.31;99646.55;103555;1302;24280;-27
2022/03/04 00:46:13;;;;;;;24.60;11.10;;;;;;;-1.49;87.18;99645.05;103578;1300;24298;-30
2022/03/04 00:48:40;;;;;;;22.90;9.60;;;;;;;-1.55;87.75;99645.85;103635;1302;22496;-23
2022/03/04 00:51:06;;;;;;;16.60;7.40;;;;;;;-1.49;88.41;99641.70;103608;1298;24246;-26
2022/03/04 00:53:34;;;;;;;26.50;9.70;;;;;;;-1.46;87.68;99636.56;103636;1302;24367;-29
2022/03/04 00:56:00;;;;;;;31.00;13.50;;;;;;;-1.46;87.34;99635.65;103609;1302;24210;-29
2022/03/04 00:58:25;;;;;;;32.10;14.90;;;;;;;-1.48;87.45;99634.58;103547;1302;24253;-26
2022/03/04 01:00:51;;;;;;;29.00;9.30;;;;;;;-1.44;87.40;99636.79;103572;1300;24211;-26
2022/03/04 01:03:17;;;;;;;33.10;13.70;;;;;;;-1.32;87.15;99636.98;103543;1300;24374;-25
2022/03/04 01:05:42;;;;;;;29.60;11.00;;;;;;;-1.37;86.85;99635.04;103527;1303;24261;-27
2022/03/04 01:08:08;;;;;;;34.10;13.90;;;;;;;-1.43;87.22;99638.45;103562;1303;24213;-26
2022/03/04 01:10:34;;;;;;;26.30;13.20;;;;;;;-1.46;87.10;99637.23;103526;1300;22749;-26
2022/03/04 01:13:00;;;;;;;26.30;10.10;;;;;;;-1.46;87.14;99641.98;103597;1300;24243;-25
2022/03/04 01:15:26;;;;;;;36.40;14.10;;;;;;;-1.50;87.43;99642.13;103605;1300;24246;-26
2022/03/04 01:17:51;;;;;;;30.40;12.80;;;;;;;-1.45;87.08;99644.76;103515;1303;24298;-25
2022/03/04 01:20:17;;;;;;;18.70;8.80;;;;;;;-1.45;86.61;99644.88;103559;1302;22501;-26
2022/03/04 01:22:43;;;;;;;22.90;9.50;;;;;;;-1.44;86.70;99642.06;103449;1302;24324;-26
2022/03/04 01:25:09;;;;;;;36.00;13.50;;;;;;;-1.43;87.39;99642.16;103537;1302;24291;-28
2022/03/04 01:27:34;;;;;;;31.90;12.30;;;;;;;-1.44;87.13;99641.66;103568;1303;24210;-26
2022/03/04 01:30:00;;;;;;;33.80;15.70;;;;;;;-1.34;87.15;99639.16;103551;1303;24206;-25
2022/03/04 01:32:26;;;;;;;34.70;13.80;;;;;;;-1.40;87.29;99642.67;103561;1300;22500;-30
2022/03/04 01:34:52;;;;;;;25.30;11.80;;;;;;;-1.48;87.78;99647.38;103527;1300;24256;-28
2022/03/04 01:37:17;;;;;;;35.00;14.60;;;;;;;-1.52;88.14;99644.02;103565;1301;24368;-28
2022/03/04 01:39:43;;;;;;;41.80;14.30;;;;;;;-1.49;88.07;99645.75;103557;1300;24311;-30
2022/03/04 01:42:09;;;;;;;35.40;14.70;;;;;;;-1.44;87.84;99648.73;103521;1300;24353;-28
2022/03/04 01:44:34;;;;;;;33.90;14.10;;;;;;;-1.46;87.70;99648.48;103529;1303;24218;-28
2022/03/04 01:47:01;;;;;;;39.80;14.70;;;;;;;-1.48;88.04;99652.55;103584;1300;24368;-25
2022/03/04 01:49:27;;;;;;;30.60;14.30;;;;;;;-1.36;87.43;99648.45;103579;1303;24263;-28
2022/03/04 01:51:52;;;;;;;18.90;10.40;;;;;;;-1.34;87.43;99643.43;103567;1300;22637;-26
2022/03/04 01:54:18;;;;;;;27.80;11.20;;;;;;;-1.27;87.08;99637.30;103555;1300;24269;-26
2022/03/04 01:56:44;;;;;;;38.00;14.70;;;;;;;-1.22;87.58;99637.55;103477;1302;24211;-30
2022/03/04 01:59:10;;;;;;;18.00;9.00;;;;;;;-1.27;87.57;99635.88;103517;1300;22509;-25
2022/03/04 02:01:35;;;;;;;44.20;15.00;;;;;;;-1.21;87.33;99634.90;103437;1303;24377;-28
2022/03/04 02:04:01;;;;;;;33.10;13.80;;;;;;;-1.31;87.91;99636.85;103478;1300;24302;-25
2022/03/04 02:06:26;;;;;;;23.90;11.40;;;;;;;-1.30;87.77;99631.33;103562;1300;24317;-26
2022/03/04 02:08:52;;;;;;;26.20;12.60;;;;;;;-1.31;88.10;99632.09;103552;1303;24342;-25
2022/03/04 02:11:18;;;;;;;43.20;15.30;;;;;;;-1.29;88.17;99628.09;103533;1301;24256;-26
2022/03/04 02:13:44;;;;;;;41.40;16.80;;;;;;;-1.42;88.53;99626.95;103566;1303;24265;-26
2022/03/04 02:16:17;;;;;;;44.20;17.60;;;;;;;-1.43;89.45;99627.41;103593;1302;23829;-28
2022/03/04 02:18:43;;;;;;;44.20;16.20;;;;;;;-1.22;88.49;99619.34;103487;1303;24245;-29
2022/03/04 02:21:10;;;;;;;40.90;16.40;;;;;;;-1.41;89.24;99623.91;103572;1300;24247;-29
2022/03/04 02:23:36;;;;;;;57.90;19.90;;;;;;;-1.44;89.75;99622.38;103595;1299;24237;-29
2022/03/04 02:26:04;;;;;;;38.60;14.60;;;;;;;-1.42;89.68;99623.63;103595;1301;24246;-26
2022/03/04 02:28:29;;;;;;;45.90;16.70;;;;;;;-1.45;90.18;99628.41;103545;1303;22498;-29
2022/03/04 02:30:55;;;;;;;45.20;18.70;;;;;;;-1.43;90.14;99626.20;103525;1303;22723;-27
2022/03/04 02:33:21;;;;;;;53.50;20.20;;;;;;;-1.45;90.27;99622.41;103484;1303;24437;-25
2022/03/04 02:35:47;;;;;;;41.10;17.30;;;;;;;-1.42;90.36;99623.84;103585;1303;24357;-24
2022/03/04 02:38:12;;;;;;;41.80;17.40;;;;;;;-1.48;90.89;99624.77;103525;1300;22652;-27
2022/03/04 02:40:38;;;;;;;31.80;14.30;;;;;;;-1.38;90.55;99627.40;103580;1300;22737;-29
2022/03/04 02:43:04;;;;;;;38.10;16.00;;;;;;;-1.40;91.03;99631.02;103543;1300;24298;-26
2022/03/04 02:45:30;;;;;;;43.40;18.60;;;;;;;-1.38;90.95;99632.42;103639;1300;24208;-29
2022/03/04 02:47:56;;;;;;;43.40;16.60;;;;;;;-1.41;90.74;99630.58;103595;1300;22738;-29
2022/03/04 02:50:22;;;;;;;45.00;13.90;;;;;;;-1.51;91.74;99633.98;103557;1303;24252;-29
2022/03/04 02:52:48;;;;;;;45.30;17.80;;;;;;;-1.49;92.47;99635.06;103607;1300;22595;-28
2022/03/04 02:55:14;;;;;;;50.00;17.50;;;;;;;-1.56;92.82;99637.13;103689;1300;24470;-26
2022/03/04 02:57:43;;;;;;;40.40;16.00;;;;;;;-1.59;93.62;99634.58;103681;1300;22628;-26
2022/03/04 03:00:10;;;;;;;30.80;12.50;;;;;;;-1.59;94.06;99637.34;103534;1303;24316;-29
2022/03/04 03:02:36;;;;;;;37.80;13.60;;;;;;;-1.53;93.96;99636.94;103617;1300;24349;-28
2022/03/04 03:05:02;;;;;;;33.10;14.70;;;;;;;-1.50;93.65;99636.52;103743;1300;24259;-29
2022/03/04 03:07:29;;;;;;;39.80;16.50;;;;;;;-1.54;93.45;99636.95;103659;1303;24321;-29
2022/03/04 03:09:55;;;;;;;37.10;16.70;;;;;;;-1.70;94.36;99632.92;103639;1300;22585;-29
2022/03/04 03:12:21;;;;;;;55.00;10.40;;;;;;;-1.72;95.05;99638.16;103656;1300;24253;-27
2022/03/04 03:14:47;;;;;;;43.70;13.80;;;;;;;-1.52;93.92;99634.20;103552;1303;24195;-26
2022/03/04 03:17:13;;;;;;;56.60;16.20;;;;;;;-1.22;92.22;99627.90;103703;1300;24397;-26
2022/03/04 03:19:38;;;;;;;59.60;18.30;;;;;;;-1.31;91.48;99631.04;103687;1300;22596;-26
2022/03/04 03:22:05;;;;;;;21.80;8.20;;;;;;;-1.57;92.73;99632.69;103657;1300;24282;-29
2022/03/04 03:24:30;;;;;;;33.10;11.40;;;;;;;-1.60;93.51;99628.48;103620;1303;24498;-29
2022/03/04 03:26:56;;;;;;;51.50;18.30;;;;;;;-1.53;93.26;99628.17;103623;1300;24249;-28
2022/03/04 03:29:22;;;;;;;49.70;16.40;;;;;;;-1.48;93.14;99630.42;103625;1300;24208;-27
2022/03/04 03:31:48;;;;;;;37.60;15.90;;;;;;;-1.44;92.48;99626.73;103487;1302;24223;-26
2022/03/04 03:34:14;;;;;;;36.60;15.40;;;;;;;-1.42;92.78;99625.76;103500;1302;24188;-26
2022/03/04 03:36:40;;;;;;;40.90;18.80;;;;;;;-1.45;92.50;99623.55;103678;1300;24716;-26
2022/03/04 03:39:08;;;;;;;28.00;13.00;;;;;;;-1.48;93.00;99625.30;103678;1300;24446;-26
2022/03/04 03:41:35;;;;;;;53.30;21.70;;;;;;;-1.50;93.39;99626.20;103628;1303;24206;-26
2022/03/04 03:44:01;;;;;;;44.00;16.10;;;;;;;-1.49;93.18;99626.09;103508;1300;22509;-26
2022/03/04 03:46:26;;;;;;;40.10;18.00;;;;;;;-1.52;93.38;99623.33;103531;1303;24245;-28
2022/03/04 03:48:52;;;;;;;60.60;19.70;;;;;;;-1.49;93.36;99625.23;103542;1300;24292;-25
2022/03/04 03:51:18;;;;;;;43.00;18.00;;;;;;;-1.47;93.32;99620.66;103611;1302;24432;-28
2022/03/04 03:53:44;;;;;;;37.10;16.60;;;;;;;-1.51;93.34;99627.65;103597;1300;24244;-26
2022/03/04 03:56:09;;;;;;;37.40;15.40;;;;;;;-1.53;93.56;99627.80;103561;1300;24267;-26
2022/03/04 03:58:35;;;;;;;40.00;14.80;;;;;;;-1.52;93.54;99622.10;103601;1302;22638;-29
2022/03/04 04:01:02;;;;;;;33.60;15.80;;;;;;;-1.46;93.33;99625.54;103643;1301;24172;-28
2022/03/04 04:03:28;;;;;;;36.30;15.60;;;;;;;-1.38;92.91;99630.20;103557;1300;24195;-25
2022/03/04 04:05:54;;;;;;;31.00;14.00;;;;;;;-1.40;92.90;99625.42;103468;1302;24459;-28
2022/03/04 04:08:20;;;;;;;25.80;10.70;;;;;;;-1.47;93.11;99623.30;103598;1300;24233;-30
2022/03/04 04:10:45;;;;;;;25.20;10.00;;;;;;;-1.48;93.43;99624.45;103584;1303;22511;-29
2022/03/04 04:13:11;;;;;;;44.00;18.20;;;;;;;-1.42;93.24;99623.43;103386;1300;336545;-28
2022/03/04 04:15:37;;;;;;;16.90;7.30;;;;;;;-1.42;93.31;99623.82;103557;1300;24286;-29
2022/03/04 04:18:03;;;;;;;31.10;13.40;;;;;;;-1.44;93.43;99627.33;103492;1300;24228;-29
2022/03/04 04:20:29;;;;;;;18.90;10.30;;;;;;;-1.45;93.45;99627.20;103527;1300;24327;-29
2022/03/04 04:22:55;;;;;;;37.50;18.10;;;;;;;-1.43;93.36;99622.66;103563;1300;24412;-26
2022/03/04 04:25:20;;;;;;;15.10;7.30;;;;;;;-1.57;93.78;99628.45;103528;1300;24255;-30
2022/03/04 04:27:46;;;;;;;31.60;13.70;;;;;;;-1.51;93.64;99634.84;103564;1300;24196;-25
2022/03/04 04:30:12;;;;;;;32.90;12.20;;;;;;;-1.50;93.45;99641.11;103537;1300;24210;-29
2022/03/04 04:32:37;;;;;;;31.60;14.30;;;;;;;-1.44;93.20;99637.27;103586;1301;22500;-25
2022/03/04 04:35:04;;;;;;;16.50;8.50;;;;;;;-1.46;93.51;99636.56;103473;1302;24284;-25
2022/03/04 04:37:30;;;;;;;40.80;14.60;;;;;;;-1.32;92.98;99638.17;103590;1302;24653;-27
2022/03/04 04:39:56;;;;;;;12.70;5.70;;;;;;;-1.39;93.26;99638.53;103633;1300;22581;-28
2022/03/04 04:42:22;;;;;;;35.80;15.80;;;;;;;-1.34;92.99;99635.20;103616;1300;24286;-27
2022/03/04 04:44:48;;;;;;;31.10;11.30;;;;;;;-1.36;93.27;99635.82;103644;1303;24231;-30
2022/03/04 04:47:13;;;;;;;39.20;14.70;;;;;;;-1.31;93.37;99633.52;103561;1300;22783;-29
2022/03/04 04:49:39;;;;;;;28.50;14.80;;;;;;;-1.32;93.62;99635.02;103534;1300;24217;-26
2022/03/04 04:52:06;;;;;;;38.10;16.70;;;;;;;-1.29;93.11;99635.52;103535;1300;22600;-29
2022/03/04 04:54:32;;;;;;;16.90;7.80;;;;;;;-1.29;93.56;99630.59;103586;1300;22505;-26
2022/03/04 04:56:59;;;;;;;34.40;15.60;;;;;;;-1.20;92.94;99631.94;103600;1300;24212;-29
2022/03/04 04:59:24;;;;;;;38.90;14.70;;;;;;;-1.28;93.39;99631.52;103529;1300;24460;-27
2022/03/04 05:01:51;;;;;;;24.40;10.80;;;;;;;-1.30;93.78;99629.23;103522;1300;22497;-27
2022/03/04 05:04:17;;;;;;;20.10;7.90;;;;;;;-1.20;93.52;99626.16;103530;1300;24246;-28
2022/03/04 05:06:42;;;;;;;29.30;9.00;;;;;;;-1.30;93.90;99628.58;103588;1301;24330;-29
2022/03/04 05:09:08;;;;;;;37.80;15.90;;;;;;;-1.41;94.70;99630.26;103553;1300;24214;-25
2022/03/04 05:11:33;;;;;;;39.90;15.10;;;;;;;-1.43;95.42;99632.79;103534;1300;24211;-30
2022/03/04 05:13:59;;;;;;;30.90;12.90;;;;;;;-1.46;95.77;99633.92;103556;1300;24279;-25
2022/03/04 05:16:25;;;;;;;40.10;16.40;;;;;;;-1.43;95.93;99633.59;103492;1302;22908;-30
2022/03/04 05:18:50;;;;;;;30.70;10.10;;;;;;;-1.47;95.95;99636.81;103572;1300;22496;-30
2022/03/04 05:21:16;;;;;;;39.40;15.70;;;;;;;-1.51;96.28;99636.59;103619;1300;24215;-26
2022/03/04 05:26:11;;;;;;;40.50;16.00;;;;;;;-1.49;96.65;99632.44;103561;1300;24375;-31
2022/03/04 05:28:37;;;;;;;34.60;9.90;;;;;;;-1.49;96.05;99634.16;103589;1300;22498;-26
2022/03/04 05:31:02;;;;;;;42.70;14.70;;;;;;;-1.52;96.48;99640.73;103502;1300;24258;-31
2022/03/04 05:33:28;;;;;;;27.40;12.80;;;;;;;-1.53;96.60;99641.64;103522;1300;24237;-29
2022/03/04 05:35:53;;;;;;;42.80;16.50;;;;;;;-1.46;96.35;99645.67;103514;1300;24251;-29
2022/03/04 05:38:19;;;;;;;30.60;13.10;;;;;;;-1.44;95.97;99650.27;103526;1300;24374;-29
2022/03/04 05:40:45;;;;;;;34.30;14.60;;;;;;;-1.39;95.79;99652.73;103537;1300;24309;-29
2022/03/04 05:43:10;;;;;;;36.40;15.00;;;;;;;-1.39;96.01;99653.08;103498;1303;22736;-27
2022/03/04 05:45:36;;;;;;;41.60;16.80;;;;;;;-1.35;95.80;99651.04;103569;1300;24304;-25
2022/03/04 05:48:02;;;;;;;46.20;18.00;;;;;;;-1.36;96.28;99656.71;103560;1300;24400;-30
2022/03/04 05:50:28;;;;;;;38.60;16.40;;;;;;;-1.23;95.96;99657.86;103499;1300;24198;-25
2022/03/04 05:52:54;;;;;;;51.10;17.30;;;;;;;-1.33;96.26;99663.25;103609;1300;22620;-25
2022/03/04 05:55:20;;;;;;;32.00;13.80;;;;;;;-1.34;96.77;99666.27;103563;1300;24417;-28
2022/03/04 05:57:47;;;;;;;40.70;17.60;;;;;;;-1.30;97.08;99666.81;103571;1300;24263;-28
2022/03/04 06:00:13;;;;;;;52.00;17.60;;;;;;;-1.30;97.41;99672.24;103577;1300;24304;-26
2022/03/04 06:02:39;;;;;;;44.00;18.00;;;;;;;-1.23;96.77;99670.18;103573;1300;24298;-29
2022/03/04 06:05:05;;;;;;;40.60;17.50;;;;;;;-1.23;97.10;99672.64;103503;1300;24245;-26
2022/03/04 06:07:33;;;;;;;34.50;15.00;;;;;;;-1.22;97.20;99676.27;103577;1300;24367;-29
2022/03/04 06:09:59;;;;;;;38.40;18.90;;;;;;;-1.13;97.19;99676.46;103516;1300;24297;-30
2022/03/04 06:12:25;;;;;;;34.50;14.90;;;;;;;-1.11;96.68;99680.04;103545;1300;24446;-30
2022/03/04 06:14:51;;;;;;;40.30;16.20;;;;;;;-1.08;97.15;99681.15;103575;1300;24215;-25
2022/03/04 06:17:17;;;;;;;40.60;16.70;;;;;;;-1.04;96.91;99682.10;103511;1300;24233;-28
2022/03/04 06:19:44;;;;;;;38.00;15.70;;;;;;;-0.99;96.71;99681.67;103547;1300;23128;-26
2022/03/04 06:22:10;;;;;;;44.00;16.20;;;;;;;-0.91;96.42;99688.34;103519;1302;24223;-26
2022/03/04 06:24:36;;;;;;;44.50;17.40;;;;;;;-0.87;96.45;99691.55;103569;1300;24441;-25
2022/03/04 06:27:02;;;;;;;38.20;17.30;;;;;;;-0.80;96.47;99690.66;103532;1300;24316;-30
2022/03/04 06:29:28;;;;;;;35.20;15.60;;;;;;;-0.80;96.37;99696.83;103588;1300;24218;-30
2022/03/04 06:31:54;;;;;;;40.20;15.90;;;;;;;-0.77;96.61;99698.70;103550;1300;24365;-26
2022/03/04 06:34:20;;;;;;;42.60;16.80;;;;;;;-0.73;96.42;99701.39;103390;1302;22502;-29
2022/03/04 06:36:46;;;;;;;50.10;17.30;;;;;;;-0.57;95.99;99701.54;103555;1300;24227;-29
2022/03/04 06:39:12;;;;;;;50.80;20.10;;;;;;;-0.51;95.46;99705.81;103537;1300;24359;-25
2022/03/04 06:41:38;;;;;;;43.80;18.70;;;;;;;-0.53;95.29;99709.69;103502;1302;24381;-28
2022/03/04 06:44:04;;;;;;;46.50;17.60;;;;;;;-0.75;96.48;99708.17;103565;1300;24208;-29
2022/03/04 06:46:29;;;;;;;51.60;19.90;;;;;;;-0.56;96.14;99713.27;103597;1300;24185;-28
2022/03/04 06:48:55;;;;;;;44.40;16.00;;;;;;;-0.56;96.13;99708.63;103537;1300;24318;-30
2022/03/04 06:51:21;;;;;;;54.10;20.30;;;;;;;-0.48;96.10;99714.03;103562;1300;24297;-30
2022/03/04 06:53:47;;;;;;;52.40;18.30;;;;;;;-0.37;95.48;99717.56;103443;1300;24245;-28
2022/03/04 06:56:15;;;;;;;48.70;17.50;;;;;;;-0.37;95.57;99725.15;103518;1300;24211;-25
2022/03/04 06:58:41;;;;;;;50.00;19.40;;;;;;;-0.47;95.71;99722.21;103358;1302;24252;-28
2022/03/04 07:01:07;;;;;;;50.70;18.40;;;;;;;-0.34;95.96;99724.36;103443;1302;24358;-24
2022/03/04 07:03:33;;;;;;;48.90;19.10;;;;;;;-0.26;95.60;99727.09;103469;1302;24305;-31
2022/03/04 07:05:59;;;;;;;47.70;18.80;;;;;;;-0.17;94.97;99725.70;103530;1300;24182;-30
2022/03/04 07:08:24;;;;;;;46.60;20.60;;;;;;;-0.07;94.78;99726.67;103611;1300;24364;-29
2022/03/04 07:10:50;;;;;;;65.80;26.20;;;;;;;0.02;94.61;99726.34;103613;1300;24419;-27
2022/03/04 07:13:16;;;;;;;64.60;24.00;;;;;;;0.09;94.27;99728.23;103494;1302;24236;-29
2022/03/04 07:15:42;;;;;;;63.00;23.10;;;;;;;0.08;93.93;99727.98;103552;1300;24222;-25
2022/03/04 07:18:08;;;;;;;56.00;20.50;;;;;;;0.09;93.98;99726.31;103556;1300;24224;-29
2022/03/04 07:20:34;;;;;;;60.10;23.60;;;;;;;0.09;94.06;99729.33;103572;1300;24259;-28
2022/03/04 07:23:00;;;;;;;54.50;21.50;;;;;;;0.12;93.98;99733.11;103548;1300;24290;-29
2022/03/04 07:25:26;;;;;;;57.10;23.60;;;;;;;0.06;94.07;99733.55;103576;1300;24790;-25
2022/03/04 07:27:52;;;;;;;57.40;19.90;;;;;;;-0.04;94.50;99732.97;103621;1300;24314;-26
2022/03/04 07:30:18;;;;;;;42.40;17.70;;;;;;;-0.11;94.85;99735.42;103594;1300;24250;-29
2022/03/04 07:32:44;;;;;;;57.10;22.80;;;;;;;-0.10;95.14;99736.55;103497;1303;24248;-29
2022/03/04 07:35:11;;;;;;;57.80;23.70;;;;;;;0.04;94.93;99736.17;103518;1301;22501;-24
2022/03/04 07:37:37;;;;;;;59.10;21.10;;;;;;;0.11;94.34;99738.27;103544;1300;24249;-29
2022/03/04 07:40:04;;;;;;;56.70;22.50;;;;;;;0.02;94.45;99740.59;103549;1300;24353;-25
2022/03/04 07:42:30;;;;;;;57.20;20.90;;;;;;;0.12;94.44;99739.60;103613;1300;22495;-28
2022/03/04 07:44:56;;;;;;;49.00;20.70;;;;;;;0.08;94.39;99743.62;103533;1302;24295;-25
2022/03/04 07:47:22;;;;;;;57.40;22.70;;;;;;;0.02;94.49;99742.34;103555;1300;24253;-26
2022/03/04 07:49:48;;;;;;;58.40;23.20;;;;;;;-0.01;94.71;99740.95;103626;1300;24292;-30
2022/03/04 07:52:15;;;;;;;67.70;23.70;;;;;;;0.07;94.56;99740.54;103616;1300;24350;-26
2022/03/04 07:54:40;;;;;;;68.90;28.30;;;;;;;0.01;94.45;99741.33;103540;1300;24182;-28
2022/03/04 07:57:07;;;;;;;63.40;23.20;;;;;;;-0.01;95.18;99743.44;103591;1300;26153;-24
2022/03/04 07:59:33;;;;;;;69.80;23.20;;;;;;;-0.12;95.41;99740.41;103533;1300;22633;-31
2022/03/04 08:01:59;;;;;;;54.90;22.40;;;;;;;-0.05;95.81;99742.89;103550;1301;24191;-26
2022/03/04 08:04:25;;;;;;;55.90;22.90;;;;;;;-0.03;95.53;99747.13;103550;1300;24224;-25
2022/03/04 08:06:50;;;;;;;64.80;26.70;;;;;;;0.06;95.48;99747.29;103624;1300;24302;-28
2022/03/04 08:09:16;;;;;;;66.30;24.30;;;;;;;0.28;94.73;99750.51;103491;1300;24215;-28
2022/03/04 08:11:44;;;;;;;64.40;22.80;;;;;;;0.36;94.34;99749.98;103543;1300;24211;-29
2022/03/04 08:14:10;;;;;;;61.60;17.30;;;;;;;0.62;93.71;99747.60;103600;1300;24405;-25
2022/03/04 08:16:36;;;;;;;71.40;26.80;;;;;;;0.84;91.73;99737.45;103542;1300;24215;-24
2022/03/04 08:19:03;;;;;;;66.40;25.40;;;;;;;0.79;92.38;99740.36;103512;1300;24265;-24
2022/03/04 08:21:29;;;;;;;72.70;26.70;;;;;;;0.90;92.53;99744.39;103585;1300;24336;-28
2022/03/04 08:23:54;;;;;;;69.10;28.30;;;;;;;0.90;91.95;99752.30;103551;1302;24214;-24
2022/03/04 08:26:20;;;;;;;65.20;26.00;;;;;;;1.06;91.79;99754.50;103603;1300;24203;-28
2022/03/04 08:28:46;;;;;;;67.30;27.20;;;;;;;0.90;91.29;99755.49;103495;1300;24209;-28
2022/03/04 08:31:12;;;;;;;53.40;20.00;;;;;;;0.83;91.67;99761.52;103547;1300;24314;-24
2022/03/04 08:33:39;;;;;;;67.10;27.20;;;;;;;0.74;91.93;99765.62;103545;1300;24373;-24
2022/03/04 08:36:05;;;;;;;61.70;22.00;;;;;;;0.66;92.33;99764.18;103554;1300;24199;-29
2022/03/04 08:38:31;;;;;;;59.80;22.90;;;;;;;0.55;92.97;99763.50;103581;1300;24215;-24
2022/03/04 08:40:57;;;;;;;64.80;28.40;;;;;;;0.56;93.33;99761.98;103586;1300;24378;-29
2022/03/04 08:43:22;;;;;;;64.10;24.30;;;;;;;0.63;93.23;99764.75;103583;1300;24303;-28
2022/03/04 08:45:48;;;;;;;61.40;27.10;;;;;;;0.72;93.34;99766.84;103765;1302;25342;-26
2022/03/04 08:48:14;;;;;;;63.30;21.90;;;;;;;0.90;93.02;99759.91;103837;1300;24419;-28
2022/03/04 08:50:40;;;;;;;64.00;25.40;;;;;;;1.10;92.56;99760.05;104304;1300;24369;-29
2022/03/04 08:53:05;;;;;;;48.70;20.60;;;;;;;1.16;91.61;99760.02;104008;1301;24198;-30
2022/03/04 08:55:31;;;;;;;44.40;23.10;;;;;;;1.03;91.61;99765.77;103973;1300;24186;-24
2022/03/04 08:57:57;;;;;;;62.50;24.30;;;;;;;1.08;91.44;99766.58;104040;1300;24368;-27
2022/03/04 09:00:26;;;;;;;53.10;22.00;;;;;;;1.15;91.61;99772.51;103631;1300;24244;-24
2022/03/04 09:02:52;;;;;;;54.30;24.10;;;;;;;1.19;91.27;99775.30;103597;1300;24250;-28
2022/03/04 09:05:18;;;;;;;52.50;23.70;;;;;;;1.25;90.93;99779.45;103465;1302;24287;-28
2022/03/04 09:07:44;;;;;;;37.70;16.50;;;;;;;1.11;90.78;99784.98;103577;1300;24233;-25
2022/03/04 09:10:10;;;;;;;53.50;17.90;;;;;;;0.84;91.41;99787.95;103428;1300;24246;-26
2022/03/04 09:12:36;;;;;;;51.00;21.40;;;;;;;0.83;92.00;99791.14;103584;1300;24211;-29
2022/03/04 09:15:03;;;;;;;63.30;24.40;;;;;;;0.92;91.92;99793.05;103503;1299;24323;-28
2022/03/04 09:17:29;;;;;;;46.50;19.20;;;;;;;0.87;91.69;99793.10;103666;1300;24314;-24
2022/03/04 09:19:54;;;;;;;51.50;20.50;;;;;;;0.77;92.03;99797.86;103522;1300;24250;-24
2022/03/04 09:22:20;;;;;;;74.50;25.30;;;;;;;0.85;92.69;99800.48;103492;1301;24214;-24
2022/03/04 09:24:46;;;;;;;58.90;23.90;;;;;;;0.90;92.34;99806.41;103550;1301;24245;-26
2022/03/04 09:27:11;;;;;;;59.60;23.00;;;;;;;0.87;92.48;99804.20;103575;1300;24244;-24
2022/03/04 09:29:37;;;;;;;60.30;22.00;;;;;;;0.98;92.40;99804.95;103565;1300;24343;-28
2022/03/04 09:32:03;;;;;;;58.10;25.10;;;;;;;0.93;92.08;99806.23;103600;1300;24368;-26
2022/03/04 09:34:29;;;;;;;53.10;23.60;;;;;;;1.02;92.15;99804.08;103332;1302;24246;-29
2022/03/04 09:36:55;;;;;;;56.20;24.20;;;;;;;1.21;92.00;99805.20;103550;1300;24313;-24
2022/03/04 09:39:20;;;;;;;59.50;22.80;;;;;;;1.28;91.69;99804.94;103557;1300;24367;-24
2022/03/04 09:41:46;;;;;;;55.30;23.80;;;;;;;1.37;90.75;99806.98;103542;1300;24467;-28
2022/03/04 09:44:12;;;;;;;56.60;22.80;;;;;;;1.25;90.52;99806.75;103547;1300;24211;-24
2022/03/04 09:46:40;;;;;;;53.30;20.80;;;;;;;1.28;90.81;99807.57;103398;1300;24202;-28
2022/03/04 09:49:07;;;;;;;51.80;22.30;;;;;;;1.25;90.52;99807.09;103708;1300;22746;-26
2022/03/04 09:51:33;;;;;;;63.80;23.30;;;;;;;1.16;90.63;99805.96;103433;1302;24304;-28
2022/03/04 09:53:59;;;;;;;37.90;18.40;;;;;;;1.08;90.84;99808.15;103639;1299;24238;-25
2022/03/04 09:56:24;;;;;;;67.10;28.20;;;;;;;1.04;91.98;99806.19;103598;1300;24218;-30
2022/03/04 09:58:50;;;;;;;59.10;26.50;;;;;;;1.10;91.70;99803.41;103640;1299;24365;-26
2022/03/04 10:01:16;;;;;;;48.40;21.50;;;;;;;1.11;91.77;99805.27;103572;1299;24328;-24
2022/03/04 10:03:46;;;;;;;52.60;23.30;;;;;;;1.16;91.90;99805.21;103640;1299;24002;-26
2022/03/04 10:06:13;;;;;;;55.60;22.80;;;;;;;1.15;91.58;99806.56;103654;1300;22718;-28
2022/03/04 10:08:40;;;;;;;55.20;21.00;;;;;;;1.09;91.66;99807.40;103578;1300;24384;-30
2022/03/04 10:11:06;;;;;;;61.60;25.10;;;;;;;1.07;91.46;99809.70;103658;1300;24256;-28
2022/03/04 10:13:43;;;;;;;48.80;19.70;;;;;;;1.01;91.91;99810.48;103631;1299;22514;-28
2022/03/04 10:16:10;;;;;;;60.40;22.50;;;;;;;1.05;92.19;99813.55;103611;1300;24303;-28
2022/03/04 10:18:36;;;;;;;60.80;24.80;;;;;;;1.12;92.34;99811.39;103507;1302;24214;-24
2022/03/04 10:21:01;;;;;;;63.20;26.10;;;;;;;1.14;92.07;99814.52;103609;1300;24335;-28
2022/03/04 10:23:27;;;;;;;64.30;26.60;;;;;;;1.22;92.07;99813.22;103483;1300;24364;-30
2022/03/04 10:25:55;;;;;;;64.00;24.70;;;;;;;1.15;91.90;99813.42;103656;1300;24300;-23
2022/03/04 10:28:23;;;;;;;53.90;26.30;;;;;;;1.28;92.17;99811.83;103437;1303;22512;-28
2022/03/04 10:30:49;;;;;;;65.60;24.60;;;;;;;1.50;91.63;99809.15;103627;1300;24348;-29
2022/03/04 10:33:18;;;;;;;47.40;18.40;;;;;;;1.62;91.63;99810.38;103647;1300;24361;-25
2022/03/04 10:35:45;;;;;;;48.70;21.20;;;;;;;1.83;91.18;99809.81;103588;1300;24307;-28
2022/03/04 10:38:17;;;;;;;41.40;21.40;;;;;;;1.78;89.44;99813.42;103564;1301;24237;-30
2022/03/04 10:40:43;;;;;;;39.50;18.90;;;;;;;1.79;89.95;99809.27;103649;1299;22826;-26
2022/03/04 10:43:10;;;;;;;48.40;22.20;;;;;;;1.94;89.71;99812.41;103635;1300;22504;-30
2022/03/04 10:45:37;;;;;;;48.80;22.00;;;;;;;1.91;89.04;99815.34;103540;1301;24441;-28
2022/03/04 10:48:07;;;;;;;57.20;20.90;;;;;;;1.82;88.75;99810.61;103521;1300;22632;-28
2022/03/04 10:50:34;;;;;;;55.60;24.10;;;;;;;1.78;88.87;99813.94;103542;1300;25238;-28
2022/03/04 10:53:01;;;;;;;40.00;16.00;;;;;;;1.99;89.59;99813.80;103567;1300;24265;-28
2022/03/04 10:55:30;;;;;;;35.80;16.60;;;;;;;2.17;89.36;99811.84;103608;1300;24311;-25
2022/03/04 10:57:58;;;;;;;39.00;17.50;;;;;;;2.33;88.51;99813.84;103596;1300;22620;-25
2022/03/04 11:00:29;;;;;;;42.80;20.40;;;;;;;2.34;87.39;99812.50;103540;1300;24189;-29
2022/03/04 11:02:55;;;;;;;42.90;18.90;;;;;;;2.36;86.88;99816.06;103611;1300;22606;-27
2022/03/04 11:05:22;;;;;;;33.60;14.40;;;;;;;2.42;86.96;99816.61;103571;1300;24457;-25
2022/03/04 11:07:48;;;;;;;28.00;13.60;;;;;;;2.46;86.21;99817.80;103539;1300;24339;-27
2022/03/04 11:10:14;;;;;;;34.70;16.80;;;;;;;2.57;86.06;99816.67;103581;1300;24396;-28